Weather at Ihtiman Airfield

Public forecast

Using degrees Celsius for public forecast. Weather courtesy of forecast.io.

Closest aviation weather report (METAR) to Ihtiman Airfield

Closest report is Sofia Airport, 22.6 nm (41.8 km) NW.

2024/05/29 02:00 (retrieved 18 minutes ago)

LBSF 290200Z AUTO 00000KT 9999 SCT066/// 11/10 Q1014 NOSIG

Closest aviation forecast (TAF) to Ihtiman Airfield

Forecast is more than 6 hours old.

Closest forecast is Kukës International Airport, 150.8 nm (279.2 km) W.

2024/05/28 18:00 Ammendment (retrieved 8 hours ago)

TAF AMD LAKU 281900Z 2818/2918 CNL